sensor_id;sensor_type;location;lat;lon;timestamp;P1;durP1;ratioP1;P2;durP2;ratioP2
59014;SDS011;44799;53.382;14.666;2022-08-04T00:02:12;1.90;;;1.80;;
59014;SDS011;44799;53.382;14.666;2022-08-04T00:05:00;3.85;;;2.05;;
59014;SDS011;44799;53.382;14.666;2022-08-04T00:10:05;2.20;;;2.00;;
59014;SDS011;44799;53.382;14.666;2022-08-04T00:12:32;2.40;;;1.98;;
59014;SDS011;44799;53.382;14.666;2022-08-04T00:15:02;3.25;;;2.13;;
59014;SDS011;44799;53.382;14.666;2022-08-04T00:17:31;3.58;;;2.10;;
59014;SDS011;44799;53.382;14.666;2022-08-04T00:20:03;2.75;;;2.40;;
59014;SDS011;44799;53.382;14.666;2022-08-04T00:22:31;3.25;;;2.05;;
59014;SDS011;44799;53.382;14.666;2022-08-04T00:25:00;3.35;;;2.10;;
59014;SDS011;44799;53.382;14.666;2022-08-04T00:27:31;3.90;;;2.30;;
59014;SDS011;44799;53.382;14.666;2022-08-04T00:29:57;2.28;;;2.00;;
59014;SDS011;44799;53.382;14.666;2022-08-04T00:32:27;2.50;;;2.30;;
59014;SDS011;44799;53.382;14.666;2022-08-04T00:34:54;4.32;;;2.20;;
59014;SDS011;44799;53.382;14.666;2022-08-04T00:37:21;2.60;;;1.88;;
59014;SDS011;44799;53.382;14.666;2022-08-04T00:39:49;2.28;;;2.10;;
59014;SDS011;44799;53.382;14.666;2022-08-04T00:48:07;2.28;;;2.15;;
59014;SDS011;44799;53.382;14.666;2022-08-04T00:51:06;4.55;;;2.50;;
59014;SDS011;44799;53.382;14.666;2022-08-04T00:53:58;2.08;;;1.90;;
59014;SDS011;44799;53.382;14.666;2022-08-04T01:02:28;3.38;;;2.28;;
59014;SDS011;44799;53.382;14.666;2022-08-04T01:05:19;3.95;;;2.20;;
59014;SDS011;44799;53.382;14.666;2022-08-04T01:15:55;3.13;;;2.25;;
59014;SDS011;44799;53.382;14.666;2022-08-04T01:18:29;3.33;;;3.03;;
59014;SDS011;44799;53.382;14.666;2022-08-04T01:29:29;2.30;;;2.05;;
59014;SDS011;44799;53.382;14.666;2022-08-04T01:32:00;2.60;;;2.40;;
59014;SDS011;44799;53.382;14.666;2022-08-04T01:34:29;5.80;;;2.60;;
59014;SDS011;44799;53.382;14.666;2022-08-04T01:37:07;2.05;;;1.95;;
59014;SDS011;44799;53.382;14.666;2022-08-04T01:39:49;4.50;;;2.05;;
59014;SDS011;44799;53.382;14.666;2022-08-04T01:42:22;3.10;;;2.55;;
59014;SDS011;44799;53.382;14.666;2022-08-04T01:44:52;3.90;;;2.28;;
59014;SDS011;44799;53.382;14.666;2022-08-04T01:47:22;2.42;;;1.95;;
59014;SDS011;44799;53.382;14.666;2022-08-04T01:49:53;3.33;;;2.40;;
59014;SDS011;44799;53.382;14.666;2022-08-04T01:52:26;4.13;;;2.60;;
59014;SDS011;44799;53.382;14.666;2022-08-04T01:54:52;3.60;;;2.83;;
59014;SDS011;44799;53.382;14.666;2022-08-04T01:57:19;3.38;;;2.70;;
59014;SDS011;44799;53.382;14.666;2022-08-04T01:59:47;3.28;;;2.60;;
59014;SDS011;44799;53.382;14.666;2022-08-04T02:02:17;7.15;;;3.33;;
59014;SDS011;44799;53.382;14.666;2022-08-04T02:04:46;8.43;;;3.13;;
59014;SDS011;44799;53.382;14.666;2022-08-04T02:09:59;4.03;;;2.97;;
59014;SDS011;44799;53.382;14.666;2022-08-04T02:20:39;3.75;;;2.65;;
59014;SDS011;44799;53.382;14.666;2022-08-04T02:23:09;5.25;;;2.53;;
59014;SDS011;44799;53.382;14.666;2022-08-04T02:25:45;5.10;;;2.83;;
59014;SDS011;44799;53.382;14.666;2022-08-04T02:31:13;3.08;;;2.78;;
59014;SDS011;44799;53.382;14.666;2022-08-04T02:33:55;3.38;;;2.10;;
59014;SDS011;44799;53.382;14.666;2022-08-04T02:36:37;3.05;;;2.50;;
59014;SDS011;44799;53.382;14.666;2022-08-04T02:39:08;3.05;;;2.65;;
59014;SDS011;44799;53.382;14.666;2022-08-04T02:41:36;2.90;;;2.47;;
59014;SDS011;44799;53.382;14.666;2022-08-04T02:44:04;3.90;;;2.63;;
59014;SDS011;44799;53.382;14.666;2022-08-04T02:46:33;3.88;;;2.78;;
59014;SDS011;44799;53.382;14.666;2022-08-04T02:49:01;5.80;;;3.25;;
59014;SDS011;44799;53.382;14.666;2022-08-04T02:51:31;5.65;;;2.75;;
59014;SDS011;44799;53.382;14.666;2022-08-04T02:53:59;2.78;;;2.47;;
59014;SDS011;44799;53.382;14.666;2022-08-04T02:56:27;3.70;;;2.67;;
59014;SDS011;44799;53.382;14.666;2022-08-04T02:58:59;4.55;;;3.30;;
59014;SDS011;44799;53.382;14.666;2022-08-04T03:01:26;4.43;;;2.90;;
59014;SDS011;44799;53.382;14.666;2022-08-04T03:04:10;3.50;;;2.45;;
59014;SDS011;44799;53.382;14.666;2022-08-04T03:15:46;5.03;;;3.25;;
59014;SDS011;44799;53.382;14.666;2022-08-04T03:18:22;2.85;;;2.58;;
59014;SDS011;44799;53.382;14.666;2022-08-04T03:21:13;8.18;;;2.60;;
59014;SDS011;44799;53.382;14.666;2022-08-04T03:23:47;7.35;;;3.22;;
59014;SDS011;44799;53.382;14.666;2022-08-04T03:26:58;5.85;;;3.50;;
59014;SDS011;44799;53.382;14.666;2022-08-04T03:35:34;3.22;;;2.83;;
59014;SDS011;44799;53.382;14.666;2022-08-04T04:22:57;6.15;;;3.97;;
59014;SDS011;44799;53.382;14.666;2022-08-04T04:28:14;3.92;;;3.50;;
59014;SDS011;44799;53.382;14.666;2022-08-04T04:46:57;5.03;;;3.63;;
59014;SDS011;44799;53.382;14.666;2022-08-04T04:55:38;4.50;;;3.58;;
59014;SDS011;44799;53.382;14.666;2022-08-04T04:58:09;7.15;;;3.92;;
59014;SDS011;44799;53.382;14.666;2022-08-04T05:15:15;5.60;;;3.67;;
59014;SDS011;44799;53.382;14.666;2022-08-04T05:17:44;5.05;;;3.83;;
59014;SDS011;44799;53.382;14.666;2022-08-04T05:20:17;5.45;;;3.80;;
59014;SDS011;44799;53.382;14.666;2022-08-04T05:28:11;4.90;;;3.53;;
59014;SDS011;44799;53.382;14.666;2022-08-04T05:30:53;6.65;;;3.90;;
59014;SDS011;44799;53.382;14.666;2022-08-04T05:33:33;5.47;;;3.60;;
59014;SDS011;44799;53.382;14.666;2022-08-04T05:36:04;6.28;;;3.60;;
59014;SDS011;44799;53.382;14.666;2022-08-04T05:38:35;6.25;;;3.95;;
59014;SDS011;44799;53.382;14.666;2022-08-04T05:41:03;5.65;;;4.35;;
59014;SDS011;44799;53.382;14.666;2022-08-04T05:43:30;4.40;;;3.78;;
59014;SDS011;44799;53.382;14.666;2022-08-04T05:45:57;5.88;;;4.15;;
59014;SDS011;44799;53.382;14.666;2022-08-04T05:48:25;5.13;;;4.03;;
59014;SDS011;44799;53.382;14.666;2022-08-04T05:50:52;5.15;;;3.88;;
59014;SDS011;44799;53.382;14.666;2022-08-04T05:53:19;5.53;;;3.55;;
59014;SDS011;44799;53.382;14.666;2022-08-04T05:55:46;3.85;;;3.55;;
59014;SDS011;44799;53.382;14.666;2022-08-04T05:58:13;5.68;;;3.53;;
59014;SDS011;44799;53.382;14.666;2022-08-04T06:00:41;5.78;;;3.83;;
59014;SDS011;44799;53.382;14.666;2022-08-04T06:03:09;5.68;;;4.50;;
59014;SDS011;44799;53.382;14.666;2022-08-04T06:05:36;3.88;;;3.58;;
59014;SDS011;44799;53.382;14.666;2022-08-04T06:08:05;3.97;;;3.47;;
59014;SDS011;44799;53.382;14.666;2022-08-04T06:10:31;7.07;;;4.88;;
59014;SDS011;44799;53.382;14.666;2022-08-04T06:13:02;3.90;;;3.60;;
59014;SDS011;44799;53.382;14.666;2022-08-04T06:15:35;4.60;;;3.92;;
59014;SDS011;44799;53.382;14.666;2022-08-04T06:18:03;4.25;;;3.47;;
59014;SDS011;44799;53.382;14.666;2022-08-04T06:20:32;3.60;;;3.30;;
59014;SDS011;44799;53.382;14.666;2022-08-04T06:23:02;3.65;;;3.35;;
59014;SDS011;44799;53.382;14.666;2022-08-04T06:25:32;4.18;;;3.70;;
59014;SDS011;44799;53.382;14.666;2022-08-04T06:28:01;5.03;;;3.67;;
59014;SDS011;44799;53.382;14.666;2022-08-04T06:30:30;6.00;;;3.60;;
59014;SDS011;44799;53.382;14.666;2022-08-04T06:32:57;5.15;;;3.70;;
59014;SDS011;44799;53.382;14.666;2022-08-04T06:35:37;3.78;;;3.47;;
59014;SDS011;44799;53.382;14.666;2022-08-04T06:38:04;4.93;;;3.83;;
59014;SDS011;44799;53.382;14.666;2022-08-04T06:40:32;4.50;;;3.92;;
59014;SDS011;44799;53.382;14.666;2022-08-04T06:43:00;4.45;;;3.75;;
59014;SDS011;44799;53.382;14.666;2022-08-04T06:45:27;5.20;;;3.72;;
59014;SDS011;44799;53.382;14.666;2022-08-04T06:47:53;5.57;;;3.60;;
59014;SDS011;44799;53.382;14.666;2022-08-04T06:50:20;4.47;;;4.18;;
59014;SDS011;44799;53.382;14.666;2022-08-04T06:52:47;4.05;;;3.65;;
59014;SDS011;44799;53.382;14.666;2022-08-04T06:55:13;6.22;;;4.13;;
59014;SDS011;44799;53.382;14.666;2022-08-04T15:50:08;4.05;;;2.15;;
59014;SDS011;44799;53.382;14.666;2022-08-04T15:55:29;2.15;;;1.77;;
59014;SDS011;44799;53.382;14.666;2022-08-04T15:58:06;2.50;;;2.30;;
59014;SDS011;44799;53.382;14.666;2022-08-04T16:16:30;3.75;;;2.45;;
59014;SDS011;44799;53.382;14.666;2022-08-04T16:22:08;2.42;;;2.17;;
59014;SDS011;44799;53.382;14.666;2022-08-04T16:24:37;1.90;;;1.80;;
59014;SDS011;44799;53.382;14.666;2022-08-04T16:27:11;2.22;;;1.95;;
59014;SDS011;44799;53.382;14.666;2022-08-04T16:29:39;1.85;;;1.63;;
59014;SDS011;44799;53.382;14.666;2022-08-04T16:32:07;3.55;;;2.20;;
59014;SDS011;44799;53.382;14.666;2022-08-04T16:37:05;2.10;;;1.90;;
59014;SDS011;44799;53.382;14.666;2022-08-04T16:39:32;4.30;;;2.17;;
59014;SDS011;44799;53.382;14.666;2022-08-04T16:41:59;3.45;;;2.00;;
59014;SDS011;44799;53.382;14.666;2022-08-04T16:44:45;2.15;;;1.80;;
59014;SDS011;44799;53.382;14.666;2022-08-04T16:50:16;3.05;;;2.00;;
59014;SDS011;44799;53.382;14.666;2022-08-04T16:52:44;3.97;;;2.20;;
59014;SDS011;44799;53.382;14.666;2022-08-04T16:55:11;2.40;;;2.15;;
59014;SDS011;44799;53.382;14.666;2022-08-04T16:57:44;2.55;;;1.90;;
59014;SDS011;44799;53.382;14.666;2022-08-04T17:00:11;3.63;;;2.67;;
59014;SDS011;44799;53.382;14.666;2022-08-04T17:02:37;3.38;;;1.98;;
59014;SDS011;44799;53.382;14.666;2022-08-04T17:05:03;3.80;;;2.30;;
59014;SDS011;44799;53.382;14.666;2022-08-04T17:07:30;1.73;;;1.63;;
59014;SDS011;44799;53.382;14.666;2022-08-04T17:10:14;2.17;;;2.03;;
59014;SDS011;44799;53.382;14.666;2022-08-04T17:12:40;2.22;;;1.70;;
59014;SDS011;44799;53.382;14.666;2022-08-04T17:15:19;3.83;;;1.98;;
59014;SDS011;44799;53.382;14.666;2022-08-04T17:17:46;2.60;;;2.00;;
59014;SDS011;44799;53.382;14.666;2022-08-04T17:20:12;3.20;;;1.75;;
59014;SDS011;44799;53.382;14.666;2022-08-04T17:22:38;3.75;;;2.20;;
59014;SDS011;44799;53.382;14.666;2022-08-04T17:25:04;2.92;;;2.72;;
59014;SDS011;44799;53.382;14.666;2022-08-04T17:27:31;5.68;;;2.13;;
59014;SDS011;44799;53.382;14.666;2022-08-04T17:29:57;2.20;;;2.00;;
59014;SDS011;44799;53.382;14.666;2022-08-04T17:32:23;4.05;;;2.40;;
59014;SDS011;44799;53.382;14.666;2022-08-04T17:34:53;2.05;;;1.75;;
59014;SDS011;44799;53.382;14.666;2022-08-04T17:37:21;2.95;;;2.25;;
59014;SDS011;44799;53.382;14.666;2022-08-04T17:39:49;4.10;;;2.00;;
59014;SDS011;44799;53.382;14.666;2022-08-04T17:42:28;2.97;;;2.30;;
59014;SDS011;44799;53.382;14.666;2022-08-04T17:47:47;4.40;;;2.35;;
59014;SDS011;44799;53.382;14.666;2022-08-04T17:50:24;3.10;;;2.25;;
59014;SDS011;44799;53.382;14.666;2022-08-04T17:53:04;4.30;;;2.58;;
59014;SDS011;44799;53.382;14.666;2022-08-04T17:55:40;2.72;;;2.10;;
59014;SDS011;44799;53.382;14.666;2022-08-04T17:58:12;2.35;;;2.15;;
59014;SDS011;44799;53.382;14.666;2022-08-04T18:00:42;2.88;;;2.50;;
59014;SDS011;44799;53.382;14.666;2022-08-04T18:03:08;3.03;;;2.20;;
59014;SDS011;44799;53.382;14.666;2022-08-04T18:05:46;2.60;;;2.40;;
59014;SDS011;44799;53.382;14.666;2022-08-04T18:08:14;2.83;;;2.53;;
59014;SDS011;44799;53.382;14.666;2022-08-04T18:10:40;2.70;;;2.50;;
59014;SDS011;44799;53.382;14.666;2022-08-04T18:13:07;3.08;;;2.42;;
59014;SDS011;44799;53.382;14.666;2022-08-04T18:15:34;4.57;;;2.50;;
59014;SDS011;44799;53.382;14.666;2022-08-04T18:18:20;2.72;;;2.53;;
59014;SDS011;44799;53.382;14.666;2022-08-04T18:20:47;3.42;;;2.20;;
59014;SDS011;44799;53.382;14.666;2022-08-04T18:23:13;2.58;;;2.25;;
59014;SDS011;44799;53.382;14.666;2022-08-04T18:25:46;3.42;;;2.60;;
59014;SDS011;44799;53.382;14.666;2022-08-04T18:28:12;4.00;;;2.55;;
59014;SDS011;44799;53.382;14.666;2022-08-04T18:30:38;3.50;;;2.60;;
59014;SDS011;44799;53.382;14.666;2022-08-04T18:33:05;3.65;;;2.55;;
59014;SDS011;44799;53.382;14.666;2022-08-04T18:35:34;4.07;;;2.65;;
59014;SDS011;44799;53.382;14.666;2022-08-04T18:38:01;5.15;;;2.80;;
59014;SDS011;44799;53.382;14.666;2022-08-04T18:40:27;3.92;;;2.70;;
59014;SDS011;44799;53.382;14.666;2022-08-04T18:42:53;4.55;;;2.75;;
59014;SDS011;44799;53.382;14.666;2022-08-04T18:45:19;3.17;;;2.50;;
59014;SDS011;44799;53.382;14.666;2022-08-04T18:47:45;3.40;;;2.47;;
59014;SDS011;44799;53.382;14.666;2022-08-04T18:50:11;2.53;;;2.13;;
59014;SDS011;44799;53.382;14.666;2022-08-04T18:52:37;3.08;;;2.28;;
59014;SDS011;44799;53.382;14.666;2022-08-04T18:55:03;2.83;;;2.47;;
59014;SDS011;44799;53.382;14.666;2022-08-04T18:57:29;4.53;;;2.17;;
59014;SDS011;44799;53.382;14.666;2022-08-04T18:59:56;3.13;;;2.78;;
59014;SDS011;44799;53.382;14.666;2022-08-04T19:02:22;3.55;;;2.92;;
59014;SDS011;44799;53.382;14.666;2022-08-04T19:04:49;4.45;;;2.53;;
59014;SDS011;44799;53.382;14.666;2022-08-04T19:07:15;3.63;;;2.90;;
59014;SDS011;44799;53.382;14.666;2022-08-04T19:09:42;3.10;;;2.72;;
59014;SDS011;44799;53.382;14.666;2022-08-04T19:12:08;3.15;;;2.85;;
59014;SDS011;44799;53.382;14.666;2022-08-04T19:14:34;3.10;;;2.80;;
59014;SDS011;44799;53.382;14.666;2022-08-04T19:17:00;4.85;;;2.55;;
59014;SDS011;44799;53.382;14.666;2022-08-04T19:19:26;2.58;;;2.38;;
59014;SDS011;44799;53.382;14.666;2022-08-04T19:21:52;2.80;;;2.55;;
59014;SDS011;44799;53.382;14.666;2022-08-04T19:24:18;6.50;;;3.05;;
59014;SDS011;44799;53.382;14.666;2022-08-04T19:26:43;5.65;;;3.45;;
59014;SDS011;44799;53.382;14.666;2022-08-04T19:29:09;3.63;;;2.80;;
59014;SDS011;44799;53.382;14.666;2022-08-04T19:31:35;3.83;;;2.63;;
59014;SDS011;44799;53.382;14.666;2022-08-04T19:34:02;3.20;;;2.90;;
59014;SDS011;44799;53.382;14.666;2022-08-04T19:36:28;3.10;;;2.80;;
59014;SDS011;44799;53.382;14.666;2022-08-04T19:38:55;6.05;;;3.28;;
59014;SDS011;44799;53.382;14.666;2022-08-04T19:41:22;4.32;;;2.70;;
59014;SDS011;44799;53.382;14.666;2022-08-04T19:43:48;4.22;;;3.15;;
59014;SDS011;44799;53.382;14.666;2022-08-04T19:46:14;4.57;;;2.97;;
59014;SDS011;44799;53.382;14.666;2022-08-04T19:48:40;4.88;;;3.00;;
59014;SDS011;44799;53.382;14.666;2022-08-04T19:51:08;3.78;;;2.88;;
59014;SDS011;44799;53.382;14.666;2022-08-04T19:53:34;4.40;;;2.97;;
59014;SDS011;44799;53.382;14.666;2022-08-04T19:56:00;4.20;;;3.28;;
59014;SDS011;44799;53.382;14.666;2022-08-04T19:58:25;3.67;;;3.38;;
59014;SDS011;44799;53.382;14.666;2022-08-04T20:00:51;3.03;;;2.58;;
59014;SDS011;44799;53.382;14.666;2022-08-04T20:03:18;4.15;;;3.20;;
59014;SDS011;44799;53.382;14.666;2022-08-04T20:05:44;11.57;;;7.65;;
59014;SDS011;44799;53.382;14.666;2022-08-04T20:08:10;5.18;;;4.15;;
59014;SDS011;44799;53.382;14.666;2022-08-04T20:10:36;3.60;;;3.22;;
59014;SDS011;44799;53.382;14.666;2022-08-04T20:13:03;3.60;;;3.25;;
59014;SDS011;44799;53.382;14.666;2022-08-04T20:15:30;4.22;;;3.65;;
59014;SDS011;44799;53.382;14.666;2022-08-04T20:17:57;3.33;;;2.95;;
59014;SDS011;44799;53.382;14.666;2022-08-04T20:20:23;4.10;;;3.47;;
59014;SDS011;44799;53.382;14.666;2022-08-04T20:22:48;3.50;;;3.17;;
59014;SDS011;44799;53.382;14.666;2022-08-04T20:25:14;5.30;;;3.38;;
59014;SDS011;44799;53.382;14.666;2022-08-04T20:27:40;4.53;;;3.88;;
59014;SDS011;44799;53.382;14.666;2022-08-04T20:30:06;5.75;;;3.78;;
59014;SDS011;44799;53.382;14.666;2022-08-04T20:32:33;4.70;;;4.03;;
59014;SDS011;44799;53.382;14.666;2022-08-04T20:34:59;4.47;;;3.47;;
59014;SDS011;44799;53.382;14.666;2022-08-04T20:37:25;3.90;;;3.55;;
59014;SDS011;44799;53.382;14.666;2022-08-04T20:39:55;3.72;;;3.42;;
59014;SDS011;44799;53.382;14.666;2022-08-04T20:42:23;4.03;;;3.30;;
59014;SDS011;44799;53.382;14.666;2022-08-04T20:44:50;4.10;;;3.70;;
59014;SDS011;44799;53.382;14.666;2022-08-04T20:47:16;4.13;;;3.35;;
59014;SDS011;44799;53.382;14.666;2022-08-04T20:49:42;4.35;;;3.30;;
59014;SDS011;44799;53.382;14.666;2022-08-04T20:52:08;4.30;;;3.85;;
59014;SDS011;44799;53.382;14.666;2022-08-04T20:54:36;3.65;;;3.15;;
59014;SDS011;44799;53.382;14.666;2022-08-04T20:57:03;4.55;;;3.88;;
59014;SDS011;44799;53.382;14.666;2022-08-04T20:59:29;3.53;;;3.22;;
59014;SDS011;44799;53.382;14.666;2022-08-04T21:01:55;3.58;;;3.28;;
59014;SDS011;44799;53.382;14.666;2022-08-04T21:04:21;3.85;;;3.45;;
59014;SDS011;44799;53.382;14.666;2022-08-04T21:06:56;5.05;;;3.65;;
59014;SDS011;44799;53.382;14.666;2022-08-04T21:09:24;4.68;;;3.78;;
59014;SDS011;44799;53.382;14.666;2022-08-04T21:11:50;3.80;;;3.50;;
59014;SDS011;44799;53.382;14.666;2022-08-04T21:14:16;4.05;;;3.60;;
59014;SDS011;44799;53.382;14.666;2022-08-04T21:16:42;3.80;;;3.50;;
59014;SDS011;44799;53.382;14.666;2022-08-04T21:19:08;3.03;;;2.80;;
59014;SDS011;44799;53.382;14.666;2022-08-04T21:21:34;4.13;;;3.72;;
59014;SDS011;44799;53.382;14.666;2022-08-04T21:24:00;3.50;;;3.20;;
59014;SDS011;44799;53.382;14.666;2022-08-04T21:26:25;5.75;;;3.35;;
59014;SDS011;44799;53.382;14.666;2022-08-04T21:28:51;3.50;;;3.20;;
59014;SDS011;44799;53.382;14.666;2022-08-04T21:31:17;6.55;;;3.55;;
59014;SDS011;44799;53.382;14.666;2022-08-04T21:33:43;4.57;;;3.70;;
59014;SDS011;44799;53.382;14.666;2022-08-04T21:36:09;4.50;;;3.45;;
59014;SDS011;44799;53.382;14.666;2022-08-04T21:38:35;5.25;;;3.55;;
59014;SDS011;44799;53.382;14.666;2022-08-04T21:41:00;3.97;;;3.40;;
59014;SDS011;44799;53.382;14.666;2022-08-04T21:43:26;3.55;;;3.25;;
59014;SDS011;44799;53.382;14.666;2022-08-04T21:45:54;3.50;;;3.20;;
59014;SDS011;44799;53.382;14.666;2022-08-04T21:48:20;3.92;;;3.10;;
59014;SDS011;44799;53.382;14.666;2022-08-04T21:50:47;3.58;;;3.25;;
59014;SDS011;44799;53.382;14.666;2022-08-04T21:53:13;3.72;;;3.08;;
59014;SDS011;44799;53.382;14.666;2022-08-04T21:55:39;4.03;;;3.67;;
59014;SDS011;44799;53.382;14.666;2022-08-04T21:58:05;4.53;;;3.50;;
59014;SDS011;44799;53.382;14.666;2022-08-04T22:00:31;3.78;;;3.40;;
59014;SDS011;44799;53.382;14.666;2022-08-04T22:02:57;3.72;;;3.25;;
59014;SDS011;44799;53.382;14.666;2022-08-04T22:05:23;3.70;;;3.40;;
59014;SDS011;44799;53.382;14.666;2022-08-04T22:07:50;3.80;;;3.40;;
59014;SDS011;44799;53.382;14.666;2022-08-04T22:10:16;4.65;;;3.50;;
59014;SDS011;44799;53.382;14.666;2022-08-04T22:12:42;3.25;;;2.95;;
59014;SDS011;44799;53.382;14.666;2022-08-04T22:15:08;3.92;;;3.47;;
59014;SDS011;44799;53.382;14.666;2022-08-04T22:17:37;5.55;;;3.80;;
59014;SDS011;44799;53.382;14.666;2022-08-04T22:20:05;3.40;;;3.10;;
59014;SDS011;44799;53.382;14.666;2022-08-04T22:22:35;5.25;;;3.50;;
59014;SDS011;44799;53.382;14.666;2022-08-04T22:25:04;4.03;;;3.35;;
59014;SDS011;44799;53.382;14.666;2022-08-04T22:27:31;6.78;;;3.60;;
59014;SDS011;44799;53.382;14.666;2022-08-04T22:30:17;3.72;;;3.42;;
59014;SDS011;44799;53.382;14.666;2022-08-04T22:32:46;3.90;;;3.50;;
59014;SDS011;44799;53.382;14.666;2022-08-04T22:35:12;3.70;;;3.40;;
59014;SDS011;44799;53.382;14.666;2022-08-04T22:37:39;4.95;;;3.85;;
59014;SDS011;44799;53.382;14.666;2022-08-04T22:40:05;4.00;;;3.38;;
59014;SDS011;44799;53.382;14.666;2022-08-04T22:42:31;4.07;;;3.50;;
59014;SDS011;44799;53.382;14.666;2022-08-04T22:44:57;4.25;;;3.65;;
59014;SDS011;44799;53.382;14.666;2022-08-04T22:47:23;4.10;;;3.70;;
59014;SDS011;44799;53.382;14.666;2022-08-04T22:49:49;4.03;;;3.67;;
59014;SDS011;44799;53.382;14.666;2022-08-04T22:52:16;4.93;;;3.65;;
59014;SDS011;44799;53.382;14.666;2022-08-04T22:54:42;6.38;;;3.83;;
59014;SDS011;44799;53.382;14.666;2022-08-04T22:57:08;4.35;;;3.88;;
59014;SDS011;44799;53.382;14.666;2022-08-04T22:59:34;4.00;;;3.58;;
59014;SDS011;44799;53.382;14.666;2022-08-04T23:02:00;4.53;;;4.07;;
59014;SDS011;44799;53.382;14.666;2022-08-04T23:04:26;4.40;;;3.83;;
59014;SDS011;44799;53.382;14.666;2022-08-04T23:06:57;5.13;;;3.90;;
59014;SDS011;44799;53.382;14.666;2022-08-04T23:09:23;3.92;;;3.58;;
59014;SDS011;44799;53.382;14.666;2022-08-04T23:11:49;4.22;;;3.83;;
59014;SDS011;44799;53.382;14.666;2022-08-04T23:14:15;4.65;;;3.65;;
59014;SDS011;44799;53.382;14.666;2022-08-04T23:16:41;4.30;;;3.47;;
59014;SDS011;44799;53.382;14.666;2022-08-04T23:19:07;3.95;;;3.35;;
59014;SDS011;44799;53.382;14.666;2022-08-04T23:21:33;4.10;;;3.70;;
59014;SDS011;44799;53.382;14.666;2022-08-04T23:23:59;3.97;;;3.60;;
59014;SDS011;44799;53.382;14.666;2022-08-04T23:26:25;8.00;;;4.28;;
59014;SDS011;44799;53.382;14.666;2022-08-04T23:28:50;5.50;;;3.67;;
59014;SDS011;44799;53.382;14.666;2022-08-04T23:31:16;4.25;;;3.85;;
59014;SDS011;44799;53.382;14.666;2022-08-04T23:33:42;5.43;;;4.25;;
59014;SDS011;44799;53.382;14.666;2022-08-04T23:36:08;5.05;;;4.22;;
59014;SDS011;44799;53.382;14.666;2022-08-04T23:38:33;4.40;;;3.97;;
59014;SDS011;44799;53.382;14.666;2022-08-04T23:41:10;3.95;;;3.58;;
59014;SDS011;44799;53.382;14.666;2022-08-04T23:43:37;4.60;;;4.13;;
59014;SDS011;44799;53.382;14.666;2022-08-04T23:46:04;5.47;;;4.97;;
59014;SDS011;44799;53.382;14.666;2022-08-04T23:48:30;4.68;;;3.83;;
59014;SDS011;44799;53.382;14.666;2022-08-04T23:51:01;6.30;;;4.28;;
59014;SDS011;44799;53.382;14.666;2022-08-04T23:53:28;4.70;;;3.88;;
59014;SDS011;44799;53.382;14.666;2022-08-04T23:55:54;4.70;;;4.10;;
59014;SDS011;44799;53.382;14.666;2022-08-04T23:58:19;4.60;;;3.83;;
